Date,TemperatureHighF,TemperatureAvgF,TemperatureLowF,DewpointHighF,DewpointAvgF,DewpointLowF,HumidityHigh,HumidityAvg,HumidityLow,PressureMaxIn,PressureMinIn,WindSpeedMaxMPH,WindSpeedAvgMPH,GustSpeedMaxMPH,PrecipitationSumIn
2013-1-1,42.2,36.3,28.4,31.1,27.4,22.0,81,70,59,29.91,29.83,8,0,8,0.00
2013-1-2,35.9,31.4,24.9,29.1,18.6,12.8,76,59,49,30.12,29.91,13,2,13,0.00
2013-1-3,36.5,27.7,17.0,24.8,17.6,13.4,95,67,49,30.15,30.03,10,1,10,0.00
2013-1-4,40.4,35.6,31.8,23.3,20.3,17.9,57,53,48,30.12,30.00,15,5,15,0.00
2013-1-5,42.6,35.5,29.4,28.1,21.9,18.9,80,58,46,30.27,30.06,17,3,17,0.00
2013-1-6,47.8,39.1,26.4,32.5,27.8,23.6,93,65,47,30.09,29.94,10,1,10,0.00
2013-1-7,42.4,36.3,22.2,29.7,24.7,20.0,94,64,52,30.36,30.06,10,2,10,0.00
2013-1-8,50.9,31.8,20.6,34.6,26.0,19.7,100,82,48,30.33,30.24,6,0,6,0.00
2013-1-9,52.8,36.9,23.1,46.0,31.3,22.6,100,83,46,30.30,30.15,13,1,13,0.00
2013-1-10,52.1,44.9,37.0,32.4,29.3,25.2,78,55,44,30.50,30.30,13,2,13,0.00
2013-1-11,45.1,39.0,32.3,41.5,36.0,28.7,100,89,69,30.39,30.00,8,0,8,0.00
2013-1-12,40.8,40.5,40.4,40.8,40.5,40.4,100,100,100,30.09,30.00,6,0,6,0.00
2013-1-15,35.9,34.7,33.9,35.2,34.4,33.9,100,99,97,30.15,29.53,8,2,8,0.28
2013-1-16,39.3,36.2,33.2,39.3,36.2,33.2,100,100,100,30.06,29.77,6,0,6,0.59
2013-1-17,44.2,40.0,35.0,42.6,30.6,24.7,100,70,50,30.03,29.88,10,2,10,0.39
2013-1-18,37.2,32.0,24.2,27.6,18.0,12.4,74,56,46,30.39,29.97,19,3,19,0.39
2013-1-19,54.1,39.1,25.1,32.5,26.8,18.1,90,63,43,30.30,29.85,9,1,12,0.00
2013-1-20,55.4,42.2,30.7,33.6,24.0,12.7,72,50,34,30.00,29.74,17,2,17,0.00
2013-1-21,42.8,31.5,23.3,24.1,17.6,10.3,79,57,46,30.00,29.71,21,1,21,0.00
2013-1-22,26.4,18.4,14.3,10.3,1.8,-1.1,50,47,43,30.18,29.85,17,5,17,0.00
2013-1-23,24.4,17.9,8.6,8.6,1.8,-6.3,59,49,43,30.24,30.03,11,2,11,0.00
2013-1-24,24.8,19.9,15.2,15.9,9.4,-0.2,91,66,48,30.42,29.97,15,2,15,0.00
2013-1-25,21.7,18.3,13.4,19.4,8.9,-1.7,98,69,49,30.42,29.97,6,1,6,0.00
2013-1-26,32.1,25.2,18.5,28.5,23.4,17.8,99,93,75,30.33,29.97,8,0,8,0.04
2013-1-27,35.7,27.2,19.9,23.3,17.7,13.9,94,68,51,30.47,30.33,9,1,9,0.00
2013-1-28,42.0,34.6,27.6,42.0,33.3,23.1,100,95,72,30.39,29.94,8,0,8,0.24
2013-1-29,68.3,55.6,37.9,54.7,49.6,37.9,100,82,58,30.00,29.85,8,1,8,0.00
2013-1-30,69.4,55.5,43.5,62.4,54.4,43.5,100,96,75,29.85,29.15,17,1,17,3.35
2013-1-31,56.1,40.0,28.9,56.1,26.3,12.3,100,59,45,29.80,29.09,23,7,23,0.43
2013-2-1,30.3,23.8,17.2,24.8,11.1,2.4,96,59,49,30.27,29.71,20,5,20,0.00
2013-2-2,28.4,20.8,10.7,24.6,10.9,-0.4,91,66,52,30.27,29.91,8,1,8,0.00
2013-2-3,34.3,28.5,23.0,31.4,24.4,14.9,98,86,54,29.91,29.74,16,1,16,0.00
2013-2-4,36.3,30.2,23.7,20.8,15.0,9.4,64,53,48,30.00,29.77,14,2,14,0.00
2013-2-5,38.4,33.3,29.4,32.0,26.3,19.4,96,76,63,29.83,29.74,5,0,5,0.00
2013-2-6,42.8,36.5,28.5,36.3,27.1,19.2,100,70,53,30.24,29.83,14,3,14,0.00
2013-2-7,39.3,32.1,23.1,27.9,23.1,18.4,92,70,52,30.33,30.09,9,1,9,0.00
2013-2-8,41.0,35.8,31.4,37.8,30.9,20.6,99,83,58,30.09,29.68,20,3,20,0.16
2013-2-9,40.1,33.0,25.5,21.5,17.9,12.7,61,54,45,30.30,29.85,24,4,24,0.12
2013-2-10,43.5,32.7,16.5,23.9,19.2,13.5,94,60,44,30.36,30.12,11,1,11,0.12
2013-2-11,41.1,39.1,34.8,41.1,38.3,23.4,100,97,54,30.12,29.59,17,1,17,0.08
2013-2-12,41.1,41.1,41.1,41.1,41.1,41.1,100,100,100,29.91,29.74,13,3,13,0.00
2013-2-13,41.1,36.4,29.3,41.1,35.7,28.8,100,97,84,29.85,29.59,6,0,6,0.04
2013-2-14,36.1,34.0,32.5,33.3,29.8,27.0,99,85,80,29.91,29.71,9,1,9,0.12
2013-2-15,33.8,33.8,33.8,28.6,28.6,28.6,81,81,81,29.94,29.83,12,1,12,0.12
2013-2-16,33.8,33.7,32.0,33.6,31.3,28.6,100,91,81,29.91,29.77,15,2,15,0.00
2013-2-17,33.8,33.8,33.8,32.7,32.7,32.7,96,96,96,30.00,29.77,17,6,17,0.00
2013-2-18,33.8,33.8,33.8,32.7,32.7,32.7,96,96,96,30.00,30.00,5,5,6,0.00
2013-3-5,40.4,36.2,33.6,33.1,29.1,21.3,98,78,46,29.74,29.71,17,5,17,0.00
2013-3-6,33.6,33.4,33.4,33.6,33.4,33.1,100,100,98,29.71,29.56,4,0,4,0.00
2013-3-30,59.3,47.6,41.1,31.9,27.8,26.1,56,47,34,30.06,30.03,9,0,9,0.00
2013-3-31,41.1,41.1,41.1,26.6,26.6,26.6,56,56,56,30.03,30.00,0,0,0,0.00
2013-4-23,59.2,50.5,40.8,49.0,45.5,40.8,100,84,65,30.16,30.11,8,0,9,0.00
2013-4-24,77.4,57.3,37.3,62.9,51.2,37.3,100,83,52,30.12,29.76,15,2,15,0.06
2013-4-25,67.0,53.4,43.6,49.7,39.9,35.5,90,62,32,30.30,30.00,12,1,12,0.00
2013-4-26,65.5,51.1,37.0,45.6,40.9,36.2,100,72,41,30.46,30.30,7,0,7,0.00
2013-4-27,72.1,54.3,35.8,50.3,43.9,35.8,100,73,38,30.41,30.26,10,1,10,0.00
2013-4-28,60.9,50.8,38.6,54.2,47.9,38.6,100,91,55,30.28,30.13,16,1,16,0.13
2013-4-29,60.9,56.2,52.8,60.6,55.9,52.2,100,99,91,30.13,30.02,10,1,10,0.19
2013-4-30,60.3,56.0,53.6,58.6,55.6,53.6,100,98,93,30.29,30.08,7,0,9,0.04
2013-5-1,71.4,59.2,47.7,53.7,47.7,38.6,100,71,33,30.41,30.28,12,1,14,0.00
2013-5-2,71.0,54.0,37.4,54.6,47.4,37.4,100,81,45,30.43,30.31,10,1,10,0.00
2013-5-3,63.2,47.7,40.0,53.6,45.3,40.0,100,92,66,30.38,30.28,8,0,9,0.00
2013-5-4,69.6,54.5,38.4,51.6,46.3,38.3,100,77,46,30.33,30.16,15,1,15,0.00
2013-5-5,64.8,50.4,37.5,48.7,43.8,37.4,100,81,51,30.25,30.13,14,1,16,0.00
2013-5-6,60.6,52.7,39.5,59.8,52.0,39.5,100,97,87,30.18,30.04,9,1,9,0.03
2013-5-7,63.4,60.5,58.6,63.4,60.5,58.6,100,100,99,30.05,29.92,11,1,12,0.66
2013-5-8,69.5,59.0,52.6,64.7,57.6,52.6,100,96,71,29.99,29.91,11,0,11,0.17
2013-5-9,77.4,61.7,50.0,66.2,57.6,49.9,100,88,59,30.00,29.90,7,0,8,0.00
2013-5-10,85.0,66.5,48.8,68.6,59.6,48.8,100,82,48,30.00,29.83,11,0,11,0.53
2013-5-11,78.0,69.6,60.9,70.5,64.9,56.1,100,85,68,29.79,29.70,9,0,10,0.04
2013-5-12,64.7,58.4,47.7,57.7,45.0,33.1,89,62,42,30.03,29.74,14,1,14,0.00
2013-5-13,61.9,50.0,38.1,41.9,37.1,31.5,95,64,37,30.17,30.01,12,1,12,0.00
2013-5-14,66.2,50.1,31.7,51.7,40.7,31.7,100,74,41,30.22,30.03,7,0,8,0.00
2013-5-15,77.8,61.7,49.9,71.1,55.9,47.9,96,83,55,30.03,29.68,4,0,7,0.00
2013-5-16,80.0,73.2,65.5,70.0,63.3,57.5,96,72,52,29.92,29.74,10,0,10,0.01
2013-5-17,84.1,70.4,55.6,66.6,60.0,53.1,100,73,43,30.11,29.92,7,0,7,0.00
2013-5-18,65.0,62.0,59.1,62.1,60.0,56.7,100,93,77,30.21,30.10,8,1,8,0.07
2013-5-19,72.8,64.2,58.6,69.5,63.6,58.6,100,98,88,30.20,30.07,7,0,7,0.01
2013-5-20,82.5,71.3,64.4,74.3,68.8,64.4,100,92,71,30.09,29.95,9,0,10,0.29
2013-5-21,86.5,74.6,64.2,77.6,71.1,64.2,100,90,69,29.98,29.83,9,1,9,0.00
2013-5-22,89.5,75.9,64.6,78.5,71.3,64.6,100,88,55,29.91,29.79,12,1,12,0.31
2013-5-23,74.4,65.5,64.2,71.9,65.4,64.2,100,100,92,29.79,29.73,5,0,5,0.81
2013-5-24,56.6,51.2,46.5,47.9,41.8,37.0,75,70,67,30.18,30.02,7,1,12,0.02
2013-5-25,67.5,54.3,40.5,52.1,42.8,36.8,91,66,45,30.21,30.10,10,1,11,0.00
2013-5-26,73.8,59.0,44.3,52.2,45.2,39.4,95,63,36,30.22,30.11,9,0,9,0.00
2013-5-27,69.3,57.5,40.5,58.6,49.2,40.5,100,77,44,30.29,30.17,5,0,5,0.00
2013-5-28,81.2,73.0,61.4,73.6,67.6,59.5,100,84,70,30.16,30.04,6,1,6,0.04
2013-5-29,89.1,75.9,63.6,75.2,69.6,63.6,100,83,52,30.10,30.04,7,0,7,0.00
2013-5-30,90.7,77.4,62.1,78.2,70.6,62.1,100,82,53,30.16,30.07,7,0,7,0.00
2013-5-31,90.3,76.6,59.7,73.6,67.8,59.7,100,77,48,30.13,29.99,6,1,10,0.00
2013-6-1,90.8,78.3,63.0,77.9,70.2,63.0,100,78,55,30.01,29.88,10,1,11,0.00
2013-6-2,82.3,73.3,68.6,76.5,69.9,66.3,100,90,77,29.88,29.82,10,0,10,0.93
2013-6-3,80.2,70.7,65.1,72.2,66.6,58.9,100,87,67,29.96,29.82,7,0,7,0.21
2013-6-4,76.7,64.6,54.1,60.3,55.2,48.7,100,74,44,30.12,29.96,8,0,8,0.00
2013-6-5,79.8,65.6,50.2,65.7,58.4,50.2,100,80,52,30.17,30.02,8,1,9,0.00
2013-6-6,70.4,64.8,59.6,68.0,62.0,53.4,100,91,76,30.05,29.86,10,1,11,0.49
2013-6-7,66.6,66.5,66.1,66.6,66.5,66.1,100,100,100,29.72,29.65,2,0,2,0.20
2013-6-8,80.8,68.5,62.5,71.0,65.6,61.9,100,91,63,30.08,29.72,7,0,7,0.01
2013-6-9,79.6,69.7,59.5,73.6,67.0,59.4,100,92,72,30.18,30.07,7,0,9,0.07
2013-6-10,80.5,71.4,67.0,77.2,70.9,67.0,100,98,87,30.09,29.76,9,0,9,0.52
2013-6-11,78.0,72.0,69.0,71.3,68.2,66.5,94,88,80,29.84,29.78,3,0,5,0.12
2013-6-12,88.5,75.9,63.6,78.0,71.5,63.6,100,88,59,29.85,29.76,9,0,9,0.03
2013-6-13,72.8,68.8,65.8,72.6,67.7,59.5,100,96,79,29.78,29.48,11,0,11,0.02
2013-6-14,80.0,69.0,59.6,65.5,60.8,58.3,100,76,49,29.98,29.62,9,0,11,0.00
2013-6-15,82.6,70.0,58.2,69.5,62.4,57.5,100,79,47,30.08,29.97,7,0,7,0.01
2013-6-16,83.3,71.2,58.7,72.8,66.1,58.6,100,85,62,30.02,29.87,7,0,7,0.00
2013-6-17,87.5,74.8,64.8,76.2,69.7,64.5,100,85,61,29.94,29.87,3,0,4,0.17
2013-6-18,73.8,70.4,66.2,73.8,70.3,66.2,100,100,93,29.89,29.77,3,0,3,0.14
2013-6-19,67.5,63.8,62.3,65.7,63.7,62.3,100,100,94,30.14,30.08,0,0,0,0.13
2013-6-20,80.4,69.3,59.4,70.6,64.6,59.3,100,86,65,30.25,30.13,11,1,11,0.00
2013-6-21,84.3,70.7,55.7,68.4,62.2,55.7,100,77,52,30.28,30.20,9,1,9,0.00
2013-6-22,87.3,83.1,76.5,75.8,72.4,70.6,84,71,62,30.19,30.10,8,1,8,0.00
2013-6-23,82.5,75.9,70.5,76.1,73.3,70.5,100,92,80,30.17,30.05,6,0,6,0.00
2013-6-24,92.3,75.8,67.9,79.3,72.6,67.9,100,91,50,30.11,30.01,6,0,6,0.19
2013-6-25,92.8,77.0,67.0,81.9,73.1,66.9,100,89,59,30.02,29.88,5,0,5,0.05
2013-6-26,90.6,75.4,64.8,81.6,72.2,64.8,100,91,69,29.91,29.80,7,0,7,0.01
2013-6-27,81.0,73.7,66.9,77.0,71.9,66.8,100,94,83,29.81,29.59,11,0,11,0.00
2013-6-28,88.5,76.5,68.1,78.5,71.9,65.1,100,86,65,29.62,29.46,7,0,7,0.01
2013-6-29,87.9,75.4,64.9,74.3,68.7,64.9,100,82,50,29.69,29.50,7,0,7,0.02
2013-6-30,87.5,76.1,65.9,79.4,72.8,65.9,100,90,73,29.83,29.67,7,1,8,0.00
2013-7-1,77.5,73.7,71.0,75.4,72.9,71.0,100,97,90,29.94,29.81,7,0,7,0.09
2013-7-2,84.0,76.8,73.4,78.2,74.9,72.9,100,94,78,30.14,29.94,10,1,13,0.00
2013-7-3,86.0,76.5,72.2,80.8,75.1,72.2,100,96,80,30.20,30.12,9,1,9,0.24
2013-7-4,89.0,79.7,71.8,80.2,75.7,71.8,100,88,71,30.23,30.13,11,1,11,0.00
2013-7-5,85.5,75.7,69.5,80.1,74.1,69.5,100,95,78,30.20,30.10,8,0,8,0.00
2013-7-6,92.2,80.2,69.2,80.3,74.9,69.2,100,86,60,30.17,30.05,9,0,9,0.00
2013-7-7,91.6,76.9,69.3,81.6,73.5,69.2,100,90,66,30.08,29.97,8,0,8,0.45
2013-7-8,86.9,76.2,68.9,77.0,72.6,68.9,100,90,62,30.09,30.02,5,0,5,0.00
2013-7-9,86.5,76.1,69.4,79.8,74.3,69.3,100,94,74,30.09,29.97,6,0,6,0.01
2013-7-10,87.0,77.9,72.3,81.0,75.7,72.3,100,93,73,29.99,29.84,9,0,9,0.00
2013-7-11,84.7,76.3,70.4,78.1,73.8,70.4,100,92,72,29.91,29.83,6,0,6,0.02
2013-7-12,75.8,70.0,66.0,73.0,69.4,66.0,100,98,85,30.04,29.89,7,0,7,0.45
2013-7-13,84.3,74.8,67.9,77.8,72.5,67.8,100,93,74,30.25,30.03,6,0,6,0.01
2013-7-14,90.3,79.0,71.5,80.6,75.6,71.5,100,90,66,30.32,30.24,8,0,8,0.09
2013-7-15,93.4,80.2,68.1,82.9,75.9,68.1,100,88,59,30.29,30.17,5,0,5,0.00
2013-7-16,93.0,81.1,72.0,83.3,77.0,72.0,100,88,61,30.24,30.15,6,0,6,0.00
2013-7-17,93.6,81.1,71.1,83.8,76.4,71.1,100,87,58,30.21,30.07,5,0,5,0.00
2013-7-18,95.8,82.9,72.9,85.7,79.0,72.8,100,89,62,30.10,29.98,5,0,5,0.00
2013-7-19,96.2,83.5,74.6,85.3,78.5,71.9,100,86,60,29.99,29.85,8,0,8,0.00
2013-7-20,93.2,81.7,73.0,82.7,76.5,71.8,100,85,64,29.87,29.77,7,0,7,0.00
2013-7-21,90.2,76.6,69.2,80.2,74.0,69.2,100,93,64,29.93,29.85,5,0,5,0.05
2013-7-22,84.8,73.8,69.8,78.2,72.7,69.8,100,97,78,29.92,29.86,7,0,7,0.00
2013-7-23,85.0,78.9,71.0,79.4,75.1,71.0,100,89,71,29.71,29.63,8,0,8,0.09
2013-7-24,83.4,73.0,62.1,75.3,69.0,62.1,100,88,61,29.92,29.67,7,0,7,0.00
2013-7-25,79.0,67.8,58.6,67.1,61.9,57.1,100,83,57,30.04,29.91,6,0,6,0.00
2013-7-26,83.5,68.9,55.9,69.9,62.8,55.9,100,84,46,30.10,30.00,5,0,5,0.00
2013-7-27,83.5,70.7,59.4,76.0,68.6,59.3,100,94,74,30.04,29.90,9,0,9,0.02
2013-7-28,84.2,74.5,67.3,75.9,71.7,67.3,100,92,65,29.98,29.87,6,0,7,0.01
2013-7-29,82.0,69.0,57.3,67.1,62.7,57.3,100,83,53,30.16,29.98,4,0,4,0.01
2013-7-30,82.4,68.7,55.6,70.8,63.4,55.6,100,85,59,30.22,30.13,5,0,5,0.00
2013-7-31,76.7,66.1,59.8,73.2,65.3,59.8,100,98,82,30.14,29.99,2,0,5,0.05
2013-8-1,83.5,73.2,67.7,77.6,72.0,67.7,100,96,78,29.99,29.79,6,0,6,0.15
2013-8-2,86.0,73.2,63.4,75.0,68.2,63.4,100,86,55,29.95,29.85,8,0,8,0.00
2013-8-3,72.8,68.0,62.6,72.5,67.6,62.6,100,99,90,29.96,29.91,3,0,3,0.09
2013-8-4,81.0,69.7,58.3,70.1,64.2,58.3,100,85,52,30.02,29.91,7,0,7,0.00
2013-8-9,79.2,76.0,75.4,74.7,73.8,73.2,95,93,86,29.95,29.90,0,0,3,0.01
2013-8-10,86.0,75.0,66.7,74.3,70.8,64.4,100,88,52,30.07,29.93,4,0,4,0.02
2013-8-11,86.0,75.0,66.0,76.0,70.1,66.0,100,87,59,30.10,29.98,8,0,8,0.00
2013-8-12,88.9,76.9,68.2,76.9,72.3,68.2,100,87,57,30.01,29.89,4,0,5,0.00
2013-8-13,87.0,75.5,68.9,77.9,72.7,64.5,100,92,66,29.89,29.72,3,0,4,0.08
2013-8-14,75.3,65.6,55.2,64.4,57.3,51.9,100,76,53,30.10,29.82,9,0,11,0.00
2013-8-15,78.5,62.9,49.4,63.2,55.4,49.4,100,81,44,30.19,30.09,5,0,6,0.00
2013-8-16,80.0,63.2,48.3,66.4,57.8,48.3,100,85,50,30.19,30.12,6,0,6,0.00
2013-8-17,80.2,65.7,50.2,67.5,60.3,50.2,100,85,56,30.27,30.19,9,0,9,0.00
2013-8-18,71.3,65.9,60.3,68.8,64.8,60.3,100,96,81,30.24,30.17,5,0,5,0.02
2013-8-19,77.5,66.8,57.6,72.7,65.4,57.6,100,96,82,30.18,30.05,5,0,6,0.00
2013-8-20,87.4,73.1,60.9,76.0,68.6,60.8,100,88,58,30.16,30.08,6,0,6,0.00
2013-8-21,89.5,75.0,63.2,78.3,71.2,63.2,100,89,62,30.18,30.04,8,0,11,0.00
2013-8-22,87.7,76.3,67.2,75.8,71.6,67.2,100,87,62,30.08,29.91,7,0,7,0.00
2013-8-23,72.6,68.8,59.8,72.2,68.7,59.8,100,100,95,30.11,29.92,4,0,4,0.13
2013-8-24,82.8,67.0,53.7,69.0,61.2,53.7,100,84,45,30.33,30.11,7,0,7,0.01
2013-8-25,82.8,67.3,53.0,70.6,61.7,53.0,100,85,52,30.41,30.25,7,0,7,0.00
2013-8-26,88.3,72.6,57.4,73.0,65.8,57.4,100,82,53,30.27,29.99,6,0,6,0.00
2013-8-27,89.5,78.2,67.3,78.8,72.9,66.4,99,84,67,29.99,29.87,8,0,8,0.00
2013-8-28,75.3,73.3,71.0,75.3,73.1,70.9,100,99,92,29.91,29.80,4,0,4,0.16
2013-8-29,85.6,74.8,66.3,77.4,72.5,66.3,100,93,68,30.00,29.82,6,0,6,0.01
2013-8-30,88.0,75.2,64.8,77.6,71.6,64.8,100,90,66,30.03,29.85,9,0,9,0.00
2013-8-31,90.6,79.2,69.2,79.1,74.8,69.2,100,88,61,29.87,29.76,7,0,8,0.00
2013-9-1,92.0,77.6,65.5,79.6,73.2,65.5,100,88,59,29.82,29.73,6,0,6,0.00
2013-9-2,91.8,79.1,69.8,78.3,74.1,69.7,100,86,57,29.79,29.69,7,0,7,0.00
2013-9-3,86.5,74.9,64.5,72.9,67.1,59.6,100,79,48,29.96,29.71,7,0,7,0.00
2013-9-4,84.6,67.3,53.1,64.5,59.0,53.1,100,79,41,30.08,29.96,6,0,6,0.00
2013-9-5,85.0,70.0,57.0,69.6,61.6,54.2,100,77,53,30.12,30.01,7,0,7,0.00
2013-9-6,77.7,61.3,48.5,58.5,53.0,48.5,100,78,42,30.26,30.12,7,0,7,0.00
2013-9-7,83.4,63.5,46.0,67.1,56.9,46.0,100,83,48,30.15,29.93,7,0,7,0.00
2013-9-8,89.3,72.8,58.4,73.4,66.7,58.4,100,83,55,30.04,29.87,8,0,8,0.00
2013-9-9,79.3,68.7,60.7,68.9,61.2,52.9,100,77,62,30.19,30.04,7,0,7,0.00
2013-9-10,94.8,77.9,64.2,77.9,72.0,64.2,100,84,55,30.16,30.05,8,0,8,0.00
2013-9-11,94.3,80.6,68.6,81.1,75.2,68.6,100,85,59,30.13,29.98,9,0,9,0.00
2013-9-12,95.1,76.4,67.7,78.0,72.4,67.7,100,89,51,29.98,29.72,9,0,11,0.03
2013-9-13,81.2,69.5,56.7,70.1,60.7,52.8,100,76,45,29.95,29.69,7,1,7,0.00
2013-9-14,70.0,57.4,45.4,53.0,49.5,45.3,100,78,48,30.16,29.95,9,0,9,0.00
2013-9-15,78.1,59.2,40.1,61.4,52.5,40.1,100,82,50,30.23,30.07,12,0,12,0.00
2013-9-16,73.1,62.5,53.6,64.7,59.9,53.6,100,92,66,30.20,30.02,6,0,6,0.04
2013-9-17,69.9,58.9,42.1,51.1,46.6,42.1,100,67,42,30.42,30.31,9,1,9,0.00
2013-9-18,74.1,53.9,36.5,55.7,47.2,36.4,100,82,48,30.34,30.17,8,0,8,0.00
2013-9-19,75.7,66.0,55.6,63.2,60.4,55.6,100,83,64,30.08,30.07,2,0,4,0.00
2013-9-20,80.7,65.5,50.5,67.5,60.7,50.5,100,86,63,30.08,29.93,3,1,8,0.00
2013-9-21,68.7,65.0,61.5,67.2,64.2,61.5,100,97,89,29.95,29.69,2,0,7,0.51
2013-9-22,72.6,60.4,52.3,62.2,56.4,51.0,100,88,64,29.96,29.73,1,0,4,0.01
2013-9-23,67.7,56.2,44.1,53.1,50.0,44.1,100,82,53,30.09,29.95,6,0,6,0.00
2013-9-24,74.7,55.0,37.8,57.6,48.3,37.8,100,82,49,30.12,29.95,7,0,7,0.00
2013-9-25,64.8,53.8,49.3,57.1,52.9,49.3,100,97,76,29.93,29.89,0,0,0,0.00
2013-9-26,77.0,60.1,49.2,56.3,52.5,48.6,100,80,38,30.07,29.98,4,0,5,0.00
2013-9-27,72.7,57.9,45.9,63.4,55.4,45.9,100,92,67,30.23,30.07,6,0,7,0.00
2013-9-28,68.2,57.6,49.5,61.3,55.0,49.5,100,92,70,30.31,30.21,6,0,6,0.00
2013-9-29,75.2,57.7,42.7,61.1,51.6,42.6,100,84,47,30.21,30.05,10,0,10,0.00
2013-9-30,57.6,56.8,55.5,57.6,56.7,55.5,100,100,99,30.03,30.02,0,0,0,0.00
2013-10-1,83.5,65.1,50.4,66.6,58.9,50.4,100,83,49,30.07,29.96,7,0,7,0.00
2013-10-2,85.8,68.0,59.1,66.3,62.7,59.1,100,85,50,30.05,29.99,1,0,4,0.00
2013-10-3,85.4,68.3,54.5,70.4,63.4,54.5,100,87,57,30.11,30.02,8,0,9,0.00
2013-10-4,87.7,69.2,55.9,71.6,64.3,55.9,100,87,53,30.08,30.00,7,0,7,0.00
2013-10-5,89.0,73.1,62.8,72.6,67.1,62.8,100,84,53,30.08,29.97,6,0,6,0.00
2013-10-6,89.6,73.1,57.9,72.9,65.7,57.9,100,81,50,30.01,29.87,14,1,16,0.00
2013-10-7,67.6,60.4,51.2,67.6,57.3,49.3,100,90,75,30.05,29.75,8,0,8,0.78
2013-10-8,69.8,55.8,45.0,55.1,49.6,45.0,100,82,52,30.29,30.05,11,0,11,0.00
2013-10-9,61.2,53.4,45.6,54.5,50.5,45.6,100,91,69,30.34,30.24,9,0,9,0.06
2013-10-10,56.1,53.8,52.2,56.1,53.8,52.1,100,100,100,30.24,30.01,3,0,3,1.71
2013-10-11,61.5,58.1,55.3,61.5,58.1,55.3,100,100,100,30.01,29.96,5,0,5,1.25
2013-10-12,65.8,61.7,58.9,65.8,61.6,58.9,100,100,93,30.17,29.99,7,0,7,0.47
2013-10-13,60.0,58.7,57.2,60.0,58.7,57.2,100,100,100,30.32,30.16,7,0,7,0.15
2013-10-14,70.5,58.9,51.0,60.9,56.3,51.0,100,92,66,30.34,30.22,7,0,8,0.00
2013-10-15,72.1,57.3,46.0,61.2,53.2,46.0,100,89,53,30.24,30.08,5,0,7,0.00
2013-10-16,72.0,63.3,55.6,65.4,61.4,55.5,100,94,77,30.08,29.89,7,0,7,0.00
2013-10-17,68.1,60.9,57.8,66.7,60.1,53.6,100,97,81,29.90,29.70,10,0,10,0.08
2013-10-18,67.5,55.5,42.9,54.3,48.3,42.9,100,78,52,30.01,29.84,15,1,15,0.00
2013-10-19,64.6,51.6,39.9,60.0,50.3,39.8,100,96,82,29.99,29.76,8,0,8,0.05
2013-10-20,64.8,51.0,38.6,49.9,42.6,38.6,100,76,43,30.09,29.88,9,0,9,0.00
2013-10-21,68.8,49.5,33.5,51.6,42.4,33.5,100,81,43,30.14,29.94,12,1,14,0.00
2013-10-22,62.9,49.9,41.6,56.4,46.4,39.6,100,89,61,29.94,29.82,7,0,7,0.00
2013-10-23,56.7,46.6,41.4,44.8,41.8,38.3,100,85,54,29.91,29.68,6,0,6,0.01
2013-10-24,48.9,40.8,37.6,35.7,34.9,33.8,88,80,56,30.14,30.04,6,0,6,0.00
2013-10-25,51.1,40.2,37.1,39.9,34.9,33.0,88,81,64,30.27,30.13,9,0,9,0.00
2013-10-26,57.6,51.8,33.9,38.1,35.8,33.9,100,55,42,30.23,29.93,12,1,12,0.00
2013-10-27,62.3,49.2,34.3,44.2,39.1,34.3,100,70,47,30.14,29.96,10,0,10,0.00
2013-10-28,46.6,34.4,30.2,42.6,34.2,30.2,100,99,86,30.29,30.14,0,0,1,0.00
2013-10-29,63.2,45.8,32.1,48.5,40.9,32.1,100,86,53,30.39,30.28,5,0,5,0.00
2013-10-30,65.8,49.6,43.0,57.7,49.0,43.0,100,98,75,30.32,30.13,2,0,3,0.01
2013-10-31,69.1,61.0,53.8,63.6,59.2,53.8,100,94,78,30.16,29.73,10,1,13,0.01
2013-11-1,76.6,66.8,60.4,66.4,62.4,56.5,100,87,51,29.72,29.54,14,2,14,0.22
2013-11-2,60.1,52.8,49.3,44.7,43.5,42.4,78,71,56,29.88,29.73,8,1,8,0.00
2013-11-3,57.7,49.4,35.7,44.3,37.8,28.1,85,66,37,30.45,29.88,9,1,9,0.00
2013-11-4,45.9,35.9,26.0,32.8,28.9,25.6,100,78,51,30.64,30.45,8,0,8,0.00
2013-11-5,54.4,44.3,30.9,47.6,39.8,30.9,100,85,67,30.63,30.45,7,0,7,0.00
2013-11-6,68.7,56.2,42.9,56.5,51.2,42.9,100,84,64,30.45,30.03,12,1,12,0.00
2013-11-7,59.9,53.0,42.5,58.2,47.8,28.9,100,83,56,30.07,29.86,11,1,14,0.05
2013-11-8,51.4,41.1,27.7,36.1,30.5,26.8,97,68,46,30.32,30.06,11,1,15,0.00
2013-11-9,55.3,40.9,25.2,36.3,31.5,25.1,100,73,46,30.35,30.03,15,1,15,0.00
2013-11-10,61.9,46.6,33.5,42.0,34.1,31.0,92,64,41,30.24,29.98,11,1,12,0.00
2013-11-11,57.5,47.8,37.5,38.8,34.3,31.3,83,61,43,30.29,29.99,10,1,10,0.00
2013-11-12,52.7,39.3,29.7,42.2,28.2,19.6,90,65,48,30.41,29.97,12,2,12,0.00
2013-11-13,44.0,35.0,25.8,28.3,23.9,20.9,85,64,47,30.50,30.38,9,1,9,0.00
2013-11-14,59.4,36.4,21.7,31.7,25.1,19.8,95,70,27,30.38,30.21,7,0,7,0.00
2013-11-15,63.3,40.7,22.7,43.7,31.0,22.4,100,73,30,30.28,30.17,6,0,7,0.03
2013-11-16,54.6,48.4,40.6,51.5,47.9,40.6,100,98,88,30.31,30.21,7,0,7,0.05
2013-11-17,62.3,55.7,50.8,62.2,55.7,50.8,100,100,99,30.22,29.69,13,1,13,0.04
2013-11-18,67.7,58.6,48.3,62.6,42.6,31.4,100,59,30,29.94,29.67,16,2,16,0.09
2013-11-19,48.6,42.7,34.7,33.6,30.8,28.8,81,63,52,30.37,29.94,12,2,12,0.00
2013-11-20,46.4,34.0,25.4,31.0,27.0,23.4,100,78,41,30.57,30.37,11,0,11,0.00
2013-11-21,47.4,37.9,23.4,41.9,34.5,23.4,100,88,75,30.58,30.38,5,0,5,0.00
2013-11-22,63.3,53.3,42.9,56.2,49.6,41.0,96,87,74,30.37,30.01,6,0,6,0.00
2013-11-23,55.6,42.8,30.8,49.0,31.6,16.0,83,65,49,30.22,30.05,12,2,12,0.00
2013-11-24,32.4,26.9,22.5,16.0,12.1,8.0,66,53,45,30.53,30.22,13,2,13,0.00
2013-11-25,37.8,28.0,16.7,20.2,14.9,11.3,87,59,37,30.57,30.32,10,1,10,0.00
2013-11-26,36.3,34.1,32.7,36.3,30.0,18.3,100,86,54,30.33,29.63,9,1,9,1.16
2013-11-27,39.7,36.4,28.3,39.3,33.2,19.5,100,88,68,30.06,29.55,12,2,13,0.14
2013-11-28,37.7,30.4,25.6,27.4,22.1,16.9,94,72,54,30.48,30.06,18,1,18,0.00
2013-11-29,41.7,29.0,19.6,31.1,24.0,19.3,100,84,55,30.73,30.46,9,1,9,0.00
2013-11-30,35.7,25.5,15.9,27.0,21.9,15.7,100,87,62,30.73,30.39,5,0,7,0.01
2013-12-1,44.3,31.7,17.5,35.4,27.9,17.2,100,87,61,30.39,30.02,4,0,4,0.00
2013-12-2,45.4,39.2,36.0,38.7,36.0,34.7,98,89,73,30.02,29.88,4,0,4,0.00
2013-12-3,55.3,39.3,30.5,43.4,36.1,30.5,100,90,61,29.99,29.88,7,0,7,0.00
2013-12-4,57.4,43.1,28.9,50.4,41.2,28.8,100,94,73,30.08,29.99,7,0,7,0.00
2013-12-5,66.7,57.9,49.5,61.9,56.6,49.2,100,96,82,30.05,29.89,13,1,13,0.00
2013-12-6,61.8,47.3,38.5,61.8,47.2,38.4,100,100,98,30.17,29.85,9,1,9,0.82
2013-12-7,40.1,36.3,29.6,38.4,32.8,25.1,100,87,73,30.55,30.13,11,1,11,0.02
2013-12-8,29.5,27.2,25.5,29.5,25.7,22.2,100,94,79,30.59,30.32,6,0,6,0.00
2013-12-9,36.7,32.7,29.7,36.5,32.7,29.5,100,100,98,30.34,30.03,4,0,4,0.31
2013-12-10,37.6,33.1,24.3,36.0,30.3,20.3,100,90,63,30.23,29.99,11,1,13,0.20
2013-12-11,38.1,26.6,15.9,25.0,19.7,14.9,100,77,50,30.40,30.22,7,0,7,0.09
2013-12-12,33.9,25.1,12.6,26.8,16.4,10.7,100,70,46,30.44,30.25,11,1,11,0.02
2013-12-13,41.4,26.6,11.4,26.0,19.3,10.5,99,77,46,30.32,30.22,12,1,14,0.07
2013-12-14,35.4,32.6,27.9,34.7,31.7,25.9,100,97,91,30.33,29.73,6,0,6,0.19
2013-12-15,43.8,36.6,29.2,39.1,32.4,25.4,100,85,71,29.95,29.64,15,2,16,0.08
2013-12-16,36.7,33.7,30.2,30.4,27.9,24.2,91,79,71,30.19,29.94,8,1,8,0.00
2013-12-17,37.7,32.7,30.8,35.0,32.3,29.2,100,99,90,30.15,29.94,2,0,3,0.00
2013-12-18,40.0,33.3,23.2,30.5,26.8,22.3,100,78,60,30.21,30.00,13,1,13,0.00
2013-12-19,56.0,35.0,21.2,38.1,29.4,21.1,100,83,48,30.20,30.07,8,0,8,0.00
2013-12-20,54.2,45.8,33.9,42.8,37.2,31.9,93,73,56,30.10,29.98,7,0,7,0.00
2013-12-21,68.2,58.1,47.2,62.1,51.7,41.5,88,79,69,30.00,29.86,11,1,11,0.00
2013-12-22,70.2,64.8,59.6,67.0,63.3,59.1,100,95,87,29.98,29.78,17,2,17,0.25
2013-12-23,59.8,52.0,36.9,59.8,49.3,29.1,100,91,73,30.24,29.89,10,1,10,0.34
2013-12-24,40.1,32.1,21.8,29.9,23.3,12.4,92,70,54,30.49,30.20,15,2,15,0.00
2013-12-25,31.4,24.7,19.8,19.6,15.5,12.9,88,68,52,30.58,30.37,8,1,8,0.00
2013-12-26,45.7,31.5,17.8,30.2,23.1,17.1,99,73,48,30.37,30.23,13,1,13,0.00
2013-12-27,51.7,36.5,23.0,28.1,24.3,20.9,95,65,33,30.42,30.30,9,1,9,0.00
2013-12-28,61.5,37.8,23.4,35.5,29.2,22.5,98,76,34,30.33,30.11,10,1,10,0.00
2013-12-29,48.9,43.0,35.9,47.1,41.5,32.6,100,94,70,30.11,29.56,12,1,12,0.49
2013-12-30,46.9,39.4,27.7,42.5,34.4,25.3,95,82,72,30.18,29.82,10,1,10,0.00
2013-12-31,43.7,32.8,26.1,33.8,25.7,20.8,96,76,55,30.32,30.11,9,1,15,0.00
2014-1-1,46.5,32.0,22.6,32.2,26.4,20.9,100,81,52,30.41,30.11,10,1,10,0.00
2014-1-2,34.8,30.5,26.0,33.2,30.2,26.0,100,99,93,30.11,29.64,5,0,8,0.00